Cape Canaveral AFS Skid Strip
KXMR : now visible

Airfield :











YOU CAN JOIN US ON...

 
LOGIN :

Register | Disclaimer

   EN    FR    IT 

 









Legend :    VFR   Marginal VFR   IFR   Intensive IFR   Very Intensive IFR
Visi :
Ceiling :
>= 8 km
>= 3000ft
5 to 8 km
1000 to 3000 ft
1500m to 5 km
500 to 1000 ft
800 to 1500m
200 to 500 ft
< 800m
< 200 ft
Symbols :   Thunderstorms  Fog  Heavy snow  Heavy precipitations  Wind > 20 kt






- Airport Elevation : 10 ft


KXMR - Cape Canaveral AFS Skid Strip

CURRENT METAR :
  • 110056Z AUTO 16009KT 10SM CLR 24/23 A3009 RMK AO2 SLP192 T02370225 $

EXPIRED METARs :
  • 102356Z AUTO 16009KT 10SM CLR 24/23 A3008 RMK AO2 SLP189 T02370225 10272 20237 53010 $
  • 102256Z AUTO 15010KT 10SM CLR 24/22 A3007 RMK AO2 SLP186 T02390223 $
  • 102156Z AUTO 14010KT 10SM CLR 25/23 A3006 RMK AO2 SLP182 T02490226 $

TAF N/A



MET'MAP, your aeronautical weather chart ! - Copyright ORBIFLY December 2007 - Disclaimer

ORBIFLY MET'MAP TEAM :

Programming & Development : Alexandra Zaïnal
Concept & original design : Baudouin d'Aumeries
Assistance for programming : Marc-Olivier Méhu
Technical & hardware support : Manuel Goepfert

Contact : metmap@orbifly.com




SOURCES & CREDITS :

   NOAA       Earth
Advisory